sensor_id;sensor_type;location;lat;lon;timestamp;P1;durP1;ratioP1;P2;durP2;ratioP2
8626;SDS011;4351;51.422;6.794;2023-04-03T00:00:50;5.73;;;3.53;;
8626;SDS011;4351;51.422;6.794;2023-04-03T00:03:18;6.83;;;3.90;;
8626;SDS011;4351;51.422;6.794;2023-04-03T00:05:47;8.47;;;4.83;;
8626;SDS011;4351;51.422;6.794;2023-04-03T00:08:17;9.17;;;5.37;;
8626;SDS011;4351;51.422;6.794;2023-04-03T00:10:45;8.27;;;4.77;;
8626;SDS011;4351;51.422;6.794;2023-04-03T00:13:13;8.10;;;5.17;;
8626;SDS011;4351;51.422;6.794;2023-04-03T00:15:41;9.07;;;5.10;;
8626;SDS011;4351;51.422;6.794;2023-04-03T00:18:09;9.67;;;5.30;;
8626;SDS011;4351;51.422;6.794;2023-04-03T00:20:37;9.03;;;5.50;;
8626;SDS011;4351;51.422;6.794;2023-04-03T00:23:05;9.57;;;5.67;;
8626;SDS011;4351;51.422;6.794;2023-04-03T00:25:34;9.43;;;5.63;;
8626;SDS011;4351;51.422;6.794;2023-04-03T00:28:02;11.27;;;5.70;;
8626;SDS011;4351;51.422;6.794;2023-04-03T00:30:31;7.97;;;5.07;;
8626;SDS011;4351;51.422;6.794;2023-04-03T00:33:01;10.37;;;5.63;;
8626;SDS011;4351;51.422;6.794;2023-04-03T00:35:29;10.37;;;5.10;;
8626;SDS011;4351;51.422;6.794;2023-04-03T00:37:57;7.40;;;4.83;;
8626;SDS011;4351;51.422;6.794;2023-04-03T00:40:26;9.90;;;5.13;;
8626;SDS011;4351;51.422;6.794;2023-04-03T00:42:57;8.83;;;5.40;;
8626;SDS011;4351;51.422;6.794;2023-04-03T00:45:28;8.53;;;5.00;;
8626;SDS011;4351;51.422;6.794;2023-04-03T00:47:59;8.90;;;5.80;;
8626;SDS011;4351;51.422;6.794;2023-04-03T00:50:32;8.03;;;4.83;;
8626;SDS011;4351;51.422;6.794;2023-04-03T00:53:05;7.77;;;5.00;;
8626;SDS011;4351;51.422;6.794;2023-04-03T00:55:34;8.80;;;5.30;;
8626;SDS011;4351;51.422;6.794;2023-04-03T00:58:05;7.53;;;4.97;;
8626;SDS011;4351;51.422;6.794;2023-04-03T01:00:35;7.67;;;4.70;;
8626;SDS011;4351;51.422;6.794;2023-04-03T01:03:06;8.43;;;5.37;;
8626;SDS011;4351;51.422;6.794;2023-04-03T01:05:35;7.57;;;5.17;;
8626;SDS011;4351;51.422;6.794;2023-04-03T01:08:03;11.90;;;6.17;;
8626;SDS011;4351;51.422;6.794;2023-04-03T01:10:33;8.60;;;6.13;;
8626;SDS011;4351;51.422;6.794;2023-04-03T01:13:01;7.13;;;4.80;;
8626;SDS011;4351;51.422;6.794;2023-04-03T01:15:45;8.70;;;5.33;;
8626;SDS011;4351;51.422;6.794;2023-04-03T01:18:13;9.60;;;5.27;;
8626;SDS011;4351;51.422;6.794;2023-04-03T01:21:04;11.17;;;5.87;;
8626;SDS011;4351;51.422;6.794;2023-04-03T01:23:59;9.30;;;6.00;;
8626;SDS011;4351;51.422;6.794;2023-04-03T01:26:35;7.43;;;5.67;;
8626;SDS011;4351;51.422;6.794;2023-04-03T01:29:04;10.83;;;5.77;;
8626;SDS011;4351;51.422;6.794;2023-04-03T01:31:41;7.83;;;6.00;;
8626;SDS011;4351;51.422;6.794;2023-04-03T01:34:14;14.57;;;6.87;;
8626;SDS011;4351;51.422;6.794;2023-04-03T01:36:41;11.33;;;6.67;;
8626;SDS011;4351;51.422;6.794;2023-04-03T01:39:09;12.27;;;7.00;;
8626;SDS011;4351;51.422;6.794;2023-04-03T01:41:38;11.03;;;6.77;;
8626;SDS011;4351;51.422;6.794;2023-04-03T01:44:12;10.53;;;6.30;;
8626;SDS011;4351;51.422;6.794;2023-04-03T01:46:41;12.13;;;6.80;;
8626;SDS011;4351;51.422;6.794;2023-04-03T01:49:09;9.07;;;6.53;;
8626;SDS011;4351;51.422;6.794;2023-04-03T01:51:37;10.63;;;6.70;;
8626;SDS011;4351;51.422;6.794;2023-04-03T01:54:05;10.57;;;6.80;;
8626;SDS011;4351;51.422;6.794;2023-04-03T01:56:33;10.10;;;6.63;;
8626;SDS011;4351;51.422;6.794;2023-04-03T01:59:01;11.17;;;7.13;;
8626;SDS011;4351;51.422;6.794;2023-04-03T02:01:29;10.73;;;6.60;;
8626;SDS011;4351;51.422;6.794;2023-04-03T02:03:58;10.10;;;6.77;;
8626;SDS011;4351;51.422;6.794;2023-04-03T02:06:26;9.57;;;6.57;;
8626;SDS011;4351;51.422;6.794;2023-04-03T02:08:54;10.80;;;6.43;;
8626;SDS011;4351;51.422;6.794;2023-04-03T02:11:22;10.97;;;6.80;;
8626;SDS011;4351;51.422;6.794;2023-04-03T02:13:51;9.83;;;6.87;;
8626;SDS011;4351;51.422;6.794;2023-04-03T02:16:19;11.57;;;7.40;;
8626;SDS011;4351;51.422;6.794;2023-04-03T02:18:48;12.30;;;7.27;;
8626;SDS011;4351;51.422;6.794;2023-04-03T02:21:17;10.23;;;6.57;;
8626;SDS011;4351;51.422;6.794;2023-04-03T02:23:46;10.97;;;7.07;;
8626;SDS011;4351;51.422;6.794;2023-04-03T02:26:15;9.13;;;6.90;;
8626;SDS011;4351;51.422;6.794;2023-04-03T02:28:44;13.07;;;7.20;;
8626;SDS011;4351;51.422;6.794;2023-04-03T02:31:12;10.20;;;7.10;;
8626;SDS011;4351;51.422;6.794;2023-04-03T02:33:42;9.83;;;6.90;;
8626;SDS011;4351;51.422;6.794;2023-04-03T02:36:12;10.07;;;7.07;;
8626;SDS011;4351;51.422;6.794;2023-04-03T02:38:45;10.87;;;7.07;;
8626;SDS011;4351;51.422;6.794;2023-04-03T02:41:13;11.37;;;7.07;;
8626;SDS011;4351;51.422;6.794;2023-04-03T02:43:41;11.73;;;7.57;;
8626;SDS011;4351;51.422;6.794;2023-04-03T02:46:09;9.77;;;6.80;;
8626;SDS011;4351;51.422;6.794;2023-04-03T02:48:37;11.03;;;6.47;;
8626;SDS011;4351;51.422;6.794;2023-04-03T02:51:05;8.07;;;5.80;;
8626;SDS011;4351;51.422;6.794;2023-04-03T02:53:33;9.27;;;6.73;;
8626;SDS011;4351;51.422;6.794;2023-04-03T02:56:09;8.40;;;5.83;;
8626;SDS011;4351;51.422;6.794;2023-04-03T02:58:37;9.53;;;6.23;;
8626;SDS011;4351;51.422;6.794;2023-04-03T03:01:07;8.43;;;6.50;;
8626;SDS011;4351;51.422;6.794;2023-04-03T03:03:35;11.73;;;6.57;;
8626;SDS011;4351;51.422;6.794;2023-04-03T03:06:03;8.53;;;5.70;;
8626;SDS011;4351;51.422;6.794;2023-04-03T03:08:32;9.40;;;6.03;;
8626;SDS011;4351;51.422;6.794;2023-04-03T03:11:01;7.33;;;5.97;;
8626;SDS011;4351;51.422;6.794;2023-04-03T03:13:31;10.03;;;6.00;;
8626;SDS011;4351;51.422;6.794;2023-04-03T03:15:59;9.40;;;5.90;;
8626;SDS011;4351;51.422;6.794;2023-04-03T03:18:28;9.97;;;6.10;;
8626;SDS011;4351;51.422;6.794;2023-04-03T03:20:57;9.97;;;5.73;;
8626;SDS011;4351;51.422;6.794;2023-04-03T03:23:27;7.90;;;5.30;;
8626;SDS011;4351;51.422;6.794;2023-04-03T03:25:58;9.27;;;5.70;;
8626;SDS011;4351;51.422;6.794;2023-04-03T03:28:28;8.57;;;5.43;;
8626;SDS011;4351;51.422;6.794;2023-04-03T03:30:57;6.47;;;5.23;;
8626;SDS011;4351;51.422;6.794;2023-04-03T03:33:26;7.27;;;5.23;;
8626;SDS011;4351;51.422;6.794;2023-04-03T03:35:54;8.83;;;5.10;;
8626;SDS011;4351;51.422;6.794;2023-04-03T03:38:23;7.83;;;4.13;;
8626;SDS011;4351;51.422;6.794;2023-04-03T03:40:52;10.63;;;4.77;;
8626;SDS011;4351;51.422;6.794;2023-04-03T03:43:22;6.90;;;4.50;;
8626;SDS011;4351;51.422;6.794;2023-04-03T03:45:51;7.53;;;4.37;;
8626;SDS011;4351;51.422;6.794;2023-04-03T03:48:23;6.77;;;3.90;;
8626;SDS011;4351;51.422;6.794;2023-04-03T03:50:51;8.37;;;3.87;;
8626;SDS011;4351;51.422;6.794;2023-04-03T03:53:23;11.00;;;4.20;;
8626;SDS011;4351;51.422;6.794;2023-04-03T03:55:55;8.33;;;3.93;;
8626;SDS011;4351;51.422;6.794;2023-04-03T03:58:25;7.17;;;3.90;;
8626;SDS011;4351;51.422;6.794;2023-04-03T04:00:53;7.90;;;3.77;;
8626;SDS011;4351;51.422;6.794;2023-04-03T04:03:20;5.53;;;2.80;;
8626;SDS011;4351;51.422;6.794;2023-04-03T04:05:51;8.07;;;3.07;;
8626;SDS011;4351;51.422;6.794;2023-04-03T04:08:19;6.30;;;3.30;;
8626;SDS011;4351;51.422;6.794;2023-04-03T04:10:47;5.80;;;2.97;;
8626;SDS011;4351;51.422;6.794;2023-04-03T04:13:17;8.07;;;2.70;;
8626;SDS011;4351;51.422;6.794;2023-04-03T04:15:45;5.60;;;2.90;;
8626;SDS011;4351;51.422;6.794;2023-04-03T04:18:14;6.20;;;2.70;;
8626;SDS011;4351;51.422;6.794;2023-04-03T04:20:46;6.77;;;2.43;;
8626;SDS011;4351;51.422;6.794;2023-04-03T04:23:17;7.30;;;3.90;;
8626;SDS011;4351;51.422;6.794;2023-04-03T04:25:48;5.63;;;2.60;;
8626;SDS011;4351;51.422;6.794;2023-04-03T04:28:16;8.93;;;2.40;;
8626;SDS011;4351;51.422;6.794;2023-04-03T04:30:47;4.50;;;2.43;;
8626;SDS011;4351;51.422;6.794;2023-04-03T04:33:17;5.80;;;3.00;;
8626;SDS011;4351;51.422;6.794;2023-04-03T04:35:46;4.80;;;2.80;;
8626;SDS011;4351;51.422;6.794;2023-04-03T04:38:19;6.03;;;2.73;;
8626;SDS011;4351;51.422;6.794;2023-04-03T04:40:50;4.73;;;2.53;;
8626;SDS011;4351;51.422;6.794;2023-04-03T04:43:18;5.87;;;2.67;;
8626;SDS011;4351;51.422;6.794;2023-04-03T04:45:57;6.30;;;2.60;;
8626;SDS011;4351;51.422;6.794;2023-04-03T04:48:28;7.57;;;2.60;;
8626;SDS011;4351;51.422;6.794;2023-04-03T04:50:58;6.30;;;2.80;;
8626;SDS011;4351;51.422;6.794;2023-04-03T04:53:27;5.47;;;2.60;;
8626;SDS011;4351;51.422;6.794;2023-04-03T04:55:55;7.10;;;2.90;;
8626;SDS011;4351;51.422;6.794;2023-04-03T04:58:24;8.40;;;2.70;;
8626;SDS011;4351;51.422;6.794;2023-04-03T05:00:57;7.67;;;2.80;;
8626;SDS011;4351;51.422;6.794;2023-04-03T05:03:26;5.83;;;2.50;;
8626;SDS011;4351;51.422;6.794;2023-04-03T05:05:54;6.43;;;2.60;;
8626;SDS011;4351;51.422;6.794;2023-04-03T05:08:22;8.40;;;3.20;;
8626;SDS011;4351;51.422;6.794;2023-04-03T05:10:51;5.77;;;2.63;;
8626;SDS011;4351;51.422;6.794;2023-04-03T05:13:23;5.73;;;2.83;;
8626;SDS011;4351;51.422;6.794;2023-04-03T05:15:51;6.67;;;2.80;;
8626;SDS011;4351;51.422;6.794;2023-04-03T05:18:19;9.20;;;2.70;;
8626;SDS011;4351;51.422;6.794;2023-04-03T05:20:48;6.17;;;2.60;;
8626;SDS011;4351;51.422;6.794;2023-04-03T05:23:17;5.87;;;2.50;;
8626;SDS011;4351;51.422;6.794;2023-04-03T05:25:46;4.80;;;2.50;;
8626;SDS011;4351;51.422;6.794;2023-04-03T05:28:16;7.93;;;2.57;;
8626;SDS011;4351;51.422;6.794;2023-04-03T05:30:44;11.70;;;3.30;;
8626;SDS011;4351;51.422;6.794;2023-04-03T05:33:12;9.23;;;3.10;;
8626;SDS011;4351;51.422;6.794;2023-04-03T05:35:47;6.03;;;2.50;;
8626;SDS011;4351;51.422;6.794;2023-04-03T05:38:22;7.93;;;2.57;;
8626;SDS011;4351;51.422;6.794;2023-04-03T05:40:51;6.00;;;2.90;;
8626;SDS011;4351;51.422;6.794;2023-04-03T05:43:21;10.17;;;3.03;;
8626;SDS011;4351;51.422;6.794;2023-04-03T05:45:50;8.70;;;2.63;;
8626;SDS011;4351;51.422;6.794;2023-04-03T05:48:21;9.37;;;3.07;;
8626;SDS011;4351;51.422;6.794;2023-04-03T05:50:49;5.93;;;2.43;;
8626;SDS011;4351;51.422;6.794;2023-04-03T05:53:23;7.23;;;2.40;;
8626;SDS011;4351;51.422;6.794;2023-04-03T05:55:57;5.70;;;2.50;;
8626;SDS011;4351;51.422;6.794;2023-04-03T05:58:27;7.53;;;2.77;;
8626;SDS011;4351;51.422;6.794;2023-04-03T06:00:55;5.73;;;2.40;;
8626;SDS011;4351;51.422;6.794;2023-04-03T06:03:23;6.63;;;2.47;;
8626;SDS011;4351;51.422;6.794;2023-04-03T06:05:51;5.70;;;2.50;;
8626;SDS011;4351;51.422;6.794;2023-04-03T06:08:20;9.13;;;2.97;;
8626;SDS011;4351;51.422;6.794;2023-04-03T06:10:48;9.23;;;2.77;;
8626;SDS011;4351;51.422;6.794;2023-04-03T06:13:16;7.80;;;2.50;;
8626;SDS011;4351;51.422;6.794;2023-04-03T06:15:45;7.17;;;2.33;;
8626;SDS011;4351;51.422;6.794;2023-04-03T06:18:13;3.57;;;2.37;;
8626;SDS011;4351;51.422;6.794;2023-04-03T06:20:41;6.03;;;2.60;;
8626;SDS011;4351;51.422;6.794;2023-04-03T06:23:09;6.90;;;3.03;;
8626;SDS011;4351;51.422;6.794;2023-04-03T06:25:38;8.53;;;2.70;;
8626;SDS011;4351;51.422;6.794;2023-04-03T06:28:06;6.60;;;2.57;;
8626;SDS011;4351;51.422;6.794;2023-04-03T06:30:35;8.30;;;2.60;;
8626;SDS011;4351;51.422;6.794;2023-04-03T06:33:05;4.30;;;2.17;;
8626;SDS011;4351;51.422;6.794;2023-04-03T06:35:33;5.00;;;2.50;;
8626;SDS011;4351;51.422;6.794;2023-04-03T06:38:01;8.43;;;2.80;;
8626;SDS011;4351;51.422;6.794;2023-04-03T06:40:34;5.47;;;2.30;;
8626;SDS011;4351;51.422;6.794;2023-04-03T06:43:02;4.43;;;2.33;;
8626;SDS011;4351;51.422;6.794;2023-04-03T06:45:30;7.80;;;2.73;;
8626;SDS011;4351;51.422;6.794;2023-04-03T06:47:58;7.77;;;3.13;;
8626;SDS011;4351;51.422;6.794;2023-04-03T06:50:27;8.43;;;2.70;;
8626;SDS011;4351;51.422;6.794;2023-04-03T06:52:55;6.07;;;2.73;;
8626;SDS011;4351;51.422;6.794;2023-04-03T06:55:23;6.90;;;2.97;;
8626;SDS011;4351;51.422;6.794;2023-04-03T06:57:51;5.73;;;2.20;;
8626;SDS011;4351;51.422;6.794;2023-04-03T07:00:19;7.33;;;2.50;;
8626;SDS011;4351;51.422;6.794;2023-04-03T07:02:47;8.23;;;2.40;;
8626;SDS011;4351;51.422;6.794;2023-04-03T07:05:15;8.27;;;2.40;;
8626;SDS011;4351;51.422;6.794;2023-04-03T07:07:44;9.73;;;2.93;;
8626;SDS011;4351;51.422;6.794;2023-04-03T07:10:12;7.37;;;2.27;;
8626;SDS011;4351;51.422;6.794;2023-04-03T07:12:41;7.13;;;2.30;;
8626;SDS011;4351;51.422;6.794;2023-04-03T07:15:09;7.00;;;2.47;;
8626;SDS011;4351;51.422;6.794;2023-04-03T07:17:38;8.70;;;2.80;;
8626;SDS011;4351;51.422;6.794;2023-04-03T07:20:07;5.13;;;2.27;;
8626;SDS011;4351;51.422;6.794;2023-04-03T07:22:35;6.33;;;2.57;;
8626;SDS011;4351;51.422;6.794;2023-04-03T07:25:05;8.43;;;2.77;;
8626;SDS011;4351;51.422;6.794;2023-04-03T07:27:34;6.10;;;2.40;;
8626;SDS011;4351;51.422;6.794;2023-04-03T07:30:03;8.00;;;2.40;;
8626;SDS011;4351;51.422;6.794;2023-04-03T07:32:32;5.80;;;2.30;;
8626;SDS011;4351;51.422;6.794;2023-04-03T07:35:01;7.27;;;2.57;;
8626;SDS011;4351;51.422;6.794;2023-04-03T07:37:29;6.80;;;2.30;;
8626;SDS011;4351;51.422;6.794;2023-04-03T07:39:58;7.07;;;2.00;;
8626;SDS011;4351;51.422;6.794;2023-04-03T07:42:30;9.03;;;2.63;;
8626;SDS011;4351;51.422;6.794;2023-04-03T07:44:58;4.37;;;2.23;;
8626;SDS011;4351;51.422;6.794;2023-04-03T07:47:26;4.60;;;2.20;;
8626;SDS011;4351;51.422;6.794;2023-04-03T07:49:54;6.00;;;2.40;;
8626;SDS011;4351;51.422;6.794;2023-04-03T07:52:23;10.13;;;2.53;;
8626;SDS011;4351;51.422;6.794;2023-04-03T07:54:51;5.63;;;2.40;;
8626;SDS011;4351;51.422;6.794;2023-04-03T07:57:19;5.93;;;2.37;;
8626;SDS011;4351;51.422;6.794;2023-04-03T07:59:49;6.77;;;2.20;;
8626;SDS011;4351;51.422;6.794;2023-04-03T08:02:16;5.97;;;1.93;;
8626;SDS011;4351;51.422;6.794;2023-04-03T08:04:44;4.43;;;1.70;;
8626;SDS011;4351;51.422;6.794;2023-04-03T08:07:12;6.63;;;2.13;;
8626;SDS011;4351;51.422;6.794;2023-04-03T08:09:40;6.93;;;2.37;;
8626;SDS011;4351;51.422;6.794;2023-04-03T08:12:08;7.10;;;2.30;;
8626;SDS011;4351;51.422;6.794;2023-04-03T08:14:37;4.10;;;1.97;;
8626;SDS011;4351;51.422;6.794;2023-04-03T08:17:06;5.37;;;2.30;;
8626;SDS011;4351;51.422;6.794;2023-04-03T08:19:38;3.97;;;2.03;;
8626;SDS011;4351;51.422;6.794;2023-04-03T08:22:06;5.37;;;1.90;;
8626;SDS011;4351;51.422;6.794;2023-04-03T08:24:34;5.50;;;1.80;;
8626;SDS011;4351;51.422;6.794;2023-04-03T08:27:06;6.63;;;1.80;;
8626;SDS011;4351;51.422;6.794;2023-04-03T08:29:34;10.10;;;2.30;;
8626;SDS011;4351;51.422;6.794;2023-04-03T08:32:04;7.77;;;1.90;;
8626;SDS011;4351;51.422;6.794;2023-04-03T08:34:34;5.00;;;2.40;;
8626;SDS011;4351;51.422;6.794;2023-04-03T08:37:03;4.53;;;1.70;;
8626;SDS011;4351;51.422;6.794;2023-04-03T08:39:31;6.30;;;1.50;;
8626;SDS011;4351;51.422;6.794;2023-04-03T08:42:00;4.83;;;1.70;;
8626;SDS011;4351;51.422;6.794;2023-04-03T08:44:36;4.10;;;1.50;;
8626;SDS011;4351;51.422;6.794;2023-04-03T08:47:13;5.80;;;2.03;;
8626;SDS011;4351;51.422;6.794;2023-04-03T08:49:53;5.43;;;1.63;;
8626;SDS011;4351;51.422;6.794;2023-04-03T08:52:26;5.57;;;1.30;;
8626;SDS011;4351;51.422;6.794;2023-04-03T08:55:02;4.20;;;1.77;;
8626;SDS011;4351;51.422;6.794;2023-04-03T08:57:33;4.73;;;1.80;;
8626;SDS011;4351;51.422;6.794;2023-04-03T09:00:05;6.00;;;1.73;;
8626;SDS011;4351;51.422;6.794;2023-04-03T09:02:43;2.90;;;1.33;;
8626;SDS011;4351;51.422;6.794;2023-04-03T09:05:16;4.27;;;1.50;;
8626;SDS011;4351;51.422;6.794;2023-04-03T09:07:46;4.00;;;1.60;;
8626;SDS011;4351;51.422;6.794;2023-04-03T09:10:19;4.30;;;1.40;;
8626;SDS011;4351;51.422;6.794;2023-04-03T09:12:57;3.37;;;1.20;;
8626;SDS011;4351;51.422;6.794;2023-04-03T09:15:30;3.57;;;1.23;;
8626;SDS011;4351;51.422;6.794;2023-04-03T09:18:05;2.27;;;0.80;;
8626;SDS011;4351;51.422;6.794;2023-04-03T09:20:45;4.23;;;1.10;;
8626;SDS011;4351;51.422;6.794;2023-04-03T09:23:21;3.33;;;1.00;;
8626;SDS011;4351;51.422;6.794;2023-04-03T09:25:56;3.90;;;1.30;;
8626;SDS011;4351;51.422;6.794;2023-04-03T09:28:28;3.10;;;1.20;;
8626;SDS011;4351;51.422;6.794;2023-04-03T09:31:13;3.83;;;1.43;;
8626;SDS011;4351;51.422;6.794;2023-04-03T09:33:47;5.47;;;1.20;;
8626;SDS011;4351;51.422;6.794;2023-04-03T09:39:09;2.60;;;1.07;;
8626;SDS011;4351;51.422;6.794;2023-04-03T09:41:40;3.90;;;1.47;;
8626;SDS011;4351;51.422;6.794;2023-04-03T09:44:18;2.43;;;0.90;;
8626;SDS011;4351;51.422;6.794;2023-04-03T09:46:51;2.20;;;0.90;;
8626;SDS011;4351;51.422;6.794;2023-04-03T09:49:19;3.43;;;1.23;;
8626;SDS011;4351;51.422;6.794;2023-04-03T09:51:49;2.63;;;1.03;;
8626;SDS011;4351;51.422;6.794;2023-04-03T09:57:10;3.50;;;1.07;;
8626;SDS011;4351;51.422;6.794;2023-04-03T09:59:41;3.93;;;1.23;;
8626;SDS011;4351;51.422;6.794;2023-04-03T10:02:21;2.33;;;1.03;;
8626;SDS011;4351;51.422;6.794;2023-04-03T10:04:55;1.53;;;1.07;;
8626;SDS011;4351;51.422;6.794;2023-04-03T10:07:38;2.27;;;1.03;;
8626;SDS011;4351;51.422;6.794;2023-04-03T10:10:17;3.70;;;1.10;;
8626;SDS011;4351;51.422;6.794;2023-04-03T10:12:49;3.27;;;1.00;;
8626;SDS011;4351;51.422;6.794;2023-04-03T10:15:33;4.33;;;1.00;;
8626;SDS011;4351;51.422;6.794;2023-04-03T10:18:10;2.70;;;1.10;;
8626;SDS011;4351;51.422;6.794;2023-04-03T10:20:56;2.50;;;0.90;;
8626;SDS011;4351;51.422;6.794;2023-04-03T10:23:30;2.83;;;1.03;;
8626;SDS011;4351;51.422;6.794;2023-04-03T10:26:04;2.20;;;1.00;;
8626;SDS011;4351;51.422;6.794;2023-04-03T10:28:43;2.47;;;0.80;;
8626;SDS011;4351;51.422;6.794;2023-04-03T10:31:21;2.23;;;0.87;;
8626;SDS011;4351;51.422;6.794;2023-04-03T10:33:59;2.43;;;1.20;;
8626;SDS011;4351;51.422;6.794;2023-04-03T10:36:36;3.90;;;1.10;;
8626;SDS011;4351;51.422;6.794;2023-04-03T10:39:15;3.30;;;1.00;;
8626;SDS011;4351;51.422;6.794;2023-04-03T10:41:56;3.53;;;1.23;;
8626;SDS011;4351;51.422;6.794;2023-04-03T10:44:44;2.47;;;1.17;;
8626;SDS011;4351;51.422;6.794;2023-04-03T10:47:20;3.50;;;1.20;;
8626;SDS011;4351;51.422;6.794;2023-04-03T10:49:54;5.60;;;1.10;;
8626;SDS011;4351;51.422;6.794;2023-04-03T10:52:29;2.00;;;1.20;;
8626;SDS011;4351;51.422;6.794;2023-04-03T10:55:13;2.53;;;1.13;;
8626;SDS011;4351;51.422;6.794;2023-04-03T10:57:52;4.43;;;1.10;;
8626;SDS011;4351;51.422;6.794;2023-04-03T11:00:25;2.77;;;1.10;;
8626;SDS011;4351;51.422;6.794;2023-04-03T11:03:03;3.83;;;1.20;;
8626;SDS011;4351;51.422;6.794;2023-04-03T11:05:37;2.77;;;1.13;;
8626;SDS011;4351;51.422;6.794;2023-04-03T11:08:12;2.33;;;1.13;;
8626;SDS011;4351;51.422;6.794;2023-04-03T11:10:51;2.07;;;1.30;;
8626;SDS011;4351;51.422;6.794;2023-04-03T11:13:24;3.13;;;1.30;;
8626;SDS011;4351;51.422;6.794;2023-04-03T11:15:58;2.20;;;1.30;;
8626;SDS011;4351;51.422;6.794;2023-04-03T11:18:26;4.77;;;1.40;;
8626;SDS011;4351;51.422;6.794;2023-04-03T11:21:01;2.93;;;1.07;;
8626;SDS011;4351;51.422;6.794;2023-04-03T11:23:33;2.60;;;1.20;;
8626;SDS011;4351;51.422;6.794;2023-04-03T11:26:17;2.70;;;1.30;;
8626;SDS011;4351;51.422;6.794;2023-04-03T11:28:51;2.23;;;1.20;;
8626;SDS011;4351;51.422;6.794;2023-04-03T11:31:25;2.87;;;1.40;;
8626;SDS011;4351;51.422;6.794;2023-04-03T11:34:05;3.57;;;1.30;;
8626;SDS011;4351;51.422;6.794;2023-04-03T11:36:43;3.93;;;1.53;;
8626;SDS011;4351;51.422;6.794;2023-04-03T11:39:17;3.87;;;1.30;;
8626;SDS011;4351;51.422;6.794;2023-04-03T11:41:51;5.40;;;1.60;;
8626;SDS011;4351;51.422;6.794;2023-04-03T11:44:36;4.67;;;1.23;;
8626;SDS011;4351;51.422;6.794;2023-04-03T11:47:05;3.10;;;1.30;;
8626;SDS011;4351;51.422;6.794;2023-04-03T11:49:54;2.17;;;1.17;;
8626;SDS011;4351;51.422;6.794;2023-04-03T11:52:54;4.27;;;1.30;;
8626;SDS011;4351;51.422;6.794;2023-04-03T11:55:41;3.43;;;1.50;;
8626;SDS011;4351;51.422;6.794;2023-04-03T11:58:14;1.90;;;1.20;;
8626;SDS011;4351;51.422;6.794;2023-04-03T12:00:48;4.60;;;1.47;;
8626;SDS011;4351;51.422;6.794;2023-04-03T12:06:42;2.90;;;1.30;;
8626;SDS011;4351;51.422;6.794;2023-04-03T12:09:23;3.50;;;1.40;;
8626;SDS011;4351;51.422;6.794;2023-04-03T12:11:57;5.07;;;1.60;;
8626;SDS011;4351;51.422;6.794;2023-04-03T12:14:29;2.60;;;1.20;;
8626;SDS011;4351;51.422;6.794;2023-04-03T12:16:57;6.63;;;1.37;;
8626;SDS011;4351;51.422;6.794;2023-04-03T12:19:27;4.50;;;1.40;;
8626;SDS011;4351;51.422;6.794;2023-04-03T12:22:09;3.63;;;1.50;;
8626;SDS011;4351;51.422;6.794;2023-04-03T12:24:40;2.13;;;1.10;;
8626;SDS011;4351;51.422;6.794;2023-04-03T12:27:14;3.50;;;1.10;;
8626;SDS011;4351;51.422;6.794;2023-04-03T12:29:51;3.10;;;1.30;;
8626;SDS011;4351;51.422;6.794;2023-04-03T12:32:26;2.50;;;1.23;;
8626;SDS011;4351;51.422;6.794;2023-04-03T12:35:36;4.00;;;1.13;;
8626;SDS011;4351;51.422;6.794;2023-04-03T12:38:14;2.87;;;1.07;;
8626;SDS011;4351;51.422;6.794;2023-04-03T12:41:03;3.70;;;1.03;;
8626;SDS011;4351;51.422;6.794;2023-04-03T12:43:48;4.70;;;1.20;;
8626;SDS011;4351;51.422;6.794;2023-04-03T12:46:41;4.03;;;1.30;;
8626;SDS011;4351;51.422;6.794;2023-04-03T12:49:14;2.27;;;1.20;;
8626;SDS011;4351;51.422;6.794;2023-04-03T12:51:51;2.63;;;1.30;;
8626;SDS011;4351;51.422;6.794;2023-04-03T12:54:21;2.83;;;1.10;;
8626;SDS011;4351;51.422;6.794;2023-04-03T12:57:08;2.30;;;1.30;;
8626;SDS011;4351;51.422;6.794;2023-04-03T12:59:37;1.97;;;1.30;;
8626;SDS011;4351;51.422;6.794;2023-04-03T13:02:15;3.37;;;1.20;;
8626;SDS011;4351;51.422;6.794;2023-04-03T13:04:50;3.43;;;1.30;;
8626;SDS011;4351;51.422;6.794;2023-04-03T13:07:21;1.43;;;1.00;;
8626;SDS011;4351;51.422;6.794;2023-04-03T13:09:55;4.90;;;1.30;;
8626;SDS011;4351;51.422;6.794;2023-04-03T13:12:28;5.07;;;1.40;;
8626;SDS011;4351;51.422;6.794;2023-04-03T13:14:58;5.07;;;1.40;;
8626;SDS011;4351;51.422;6.794;2023-04-03T13:17:29;2.83;;;1.20;;
8626;SDS011;4351;51.422;6.794;2023-04-03T13:20:09;2.90;;;1.13;;
8626;SDS011;4351;51.422;6.794;2023-04-03T13:22:39;3.80;;;1.10;;
8626;SDS011;4351;51.422;6.794;2023-04-03T13:25:13;2.77;;;1.37;;
8626;SDS011;4351;51.422;6.794;2023-04-03T13:27:43;2.53;;;1.00;;
8626;SDS011;4351;51.422;6.794;2023-04-03T13:30:18;5.17;;;1.20;;
8626;SDS011;4351;51.422;6.794;2023-04-03T13:32:50;4.13;;;1.40;;
8626;SDS011;4351;51.422;6.794;2023-04-03T13:35:29;2.37;;;1.30;;
8626;SDS011;4351;51.422;6.794;2023-04-03T13:38:00;2.50;;;1.30;;
8626;SDS011;4351;51.422;6.794;2023-04-03T13:40:30;2.73;;;1.23;;
8626;SDS011;4351;51.422;6.794;2023-04-03T13:43:17;5.60;;;1.00;;
8626;SDS011;4351;51.422;6.794;2023-04-03T13:45:53;2.03;;;1.17;;
8626;SDS011;4351;51.422;6.794;2023-04-03T13:48:26;2.87;;;1.23;;
8626;SDS011;4351;51.422;6.794;2023-04-03T13:50:58;3.10;;;1.00;;
8626;SDS011;4351;51.422;6.794;2023-04-03T13:53:29;1.83;;;1.10;;
8626;SDS011;4351;51.422;6.794;2023-04-03T13:56:00;2.63;;;1.10;;
8626;SDS011;4351;51.422;6.794;2023-04-03T13:58:37;3.23;;;1.23;;
8626;SDS011;4351;51.422;6.794;2023-04-03T14:01:08;2.30;;;1.30;;
8626;SDS011;4351;51.422;6.794;2023-04-03T14:03:42;2.87;;;1.10;;
8626;SDS011;4351;51.422;6.794;2023-04-03T14:06:12;2.67;;;1.20;;
8626;SDS011;4351;51.422;6.794;2023-04-03T14:08:43;3.73;;;1.10;;
8626;SDS011;4351;51.422;6.794;2023-04-03T14:11:12;3.00;;;1.30;;
8626;SDS011;4351;51.422;6.794;2023-04-03T14:13:42;2.37;;;1.00;;
8626;SDS011;4351;51.422;6.794;2023-04-03T14:16:15;3.23;;;1.40;;
8626;SDS011;4351;51.422;6.794;2023-04-03T14:18:47;4.80;;;1.37;;
8626;SDS011;4351;51.422;6.794;2023-04-03T14:21:18;3.90;;;1.10;;
8626;SDS011;4351;51.422;6.794;2023-04-03T14:23:48;2.77;;;1.00;;
8626;SDS011;4351;51.422;6.794;2023-04-03T14:26:17;2.30;;;1.20;;
8626;SDS011;4351;51.422;6.794;2023-04-03T14:28:48;3.77;;;1.23;;
8626;SDS011;4351;51.422;6.794;2023-04-03T14:31:18;4.10;;;1.23;;
8626;SDS011;4351;51.422;6.794;2023-04-03T14:33:49;3.20;;;0.90;;
8626;SDS011;4351;51.422;6.794;2023-04-03T14:36:18;2.53;;;1.00;;
8626;SDS011;4351;51.422;6.794;2023-04-03T14:38:48;3.47;;;1.40;;
8626;SDS011;4351;51.422;6.794;2023-04-03T14:41:18;3.67;;;1.20;;
8626;SDS011;4351;51.422;6.794;2023-04-03T14:43:49;4.17;;;1.03;;
8626;SDS011;4351;51.422;6.794;2023-04-03T14:46:20;2.00;;;1.00;;
8626;SDS011;4351;51.422;6.794;2023-04-03T14:48:59;2.83;;;1.20;;
8626;SDS011;4351;51.422;6.794;2023-04-03T14:51:27;4.43;;;1.50;;
8626;SDS011;4351;51.422;6.794;2023-04-03T14:53:55;2.10;;;1.03;;
8626;SDS011;4351;51.422;6.794;2023-04-03T14:56:25;3.30;;;1.27;;
8626;SDS011;4351;51.422;6.794;2023-04-03T14:58:55;4.47;;;1.20;;
8626;SDS011;4351;51.422;6.794;2023-04-03T15:01:27;4.37;;;1.20;;
8626;SDS011;4351;51.422;6.794;2023-04-03T15:03:55;3.17;;;1.20;;
8626;SDS011;4351;51.422;6.794;2023-04-03T15:06:25;2.30;;;1.13;;
8626;SDS011;4351;51.422;6.794;2023-04-03T15:08:53;5.33;;;1.30;;
8626;SDS011;4351;51.422;6.794;2023-04-03T15:11:21;2.47;;;1.30;;
8626;SDS011;4351;51.422;6.794;2023-04-03T15:13:49;2.47;;;1.07;;
8626;SDS011;4351;51.422;6.794;2023-04-03T15:16:17;4.17;;;1.13;;
8626;SDS011;4351;51.422;6.794;2023-04-03T15:18:46;4.60;;;1.20;;
8626;SDS011;4351;51.422;6.794;2023-04-03T15:21:14;4.37;;;1.30;;
8626;SDS011;4351;51.422;6.794;2023-04-03T15:23:44;3.03;;;1.30;;
8626;SDS011;4351;51.422;6.794;2023-04-03T15:26:12;5.70;;;1.20;;
8626;SDS011;4351;51.422;6.794;2023-04-03T15:28:41;2.00;;;1.10;;
8626;SDS011;4351;51.422;6.794;2023-04-03T15:31:10;5.77;;;1.23;;
8626;SDS011;4351;51.422;6.794;2023-04-03T15:33:38;3.17;;;1.27;;
8626;SDS011;4351;51.422;6.794;2023-04-03T15:36:06;4.17;;;1.20;;
8626;SDS011;4351;51.422;6.794;2023-04-03T15:38:56;5.00;;;1.43;;
8626;SDS011;4351;51.422;6.794;2023-04-03T15:41:24;2.50;;;1.50;;
8626;SDS011;4351;51.422;6.794;2023-04-03T15:43:52;2.77;;;1.27;;
8626;SDS011;4351;51.422;6.794;2023-04-03T15:46:20;2.90;;;1.17;;
8626;SDS011;4351;51.422;6.794;2023-04-03T15:48:48;2.27;;;1.13;;
8626;SDS011;4351;51.422;6.794;2023-04-03T15:51:16;4.50;;;1.30;;